首页
METAR-TAF:

METAR-TAF

机场 :

Custer County Airport

Custer, 南达科他州, 美国

纬度: 43-43-59N, 经度: 103-37-03W, 海拔: 1707米

当前天气观测

该预报发布于24分钟前的15:53 UTC
风速4节,风向多变
温度 31°C
湿度 17%
气压 1016 hPa
能見度: 16.1公里
天空无云

METAR: KCUT 241553Z AUTO VRB04KT 10SM CLR 31/03 A2999 RMK AO2 SLP064 T03110028

时间: 10:17 (16:17 UTC)


TAF: 丢失

超过4000个机场的气象观测和天气预报(METAR&TAF报告)。

可查询的气象台以黄色和红色小点在地图上表示。

将鼠标移到小点上方,可查看气象台名称。

然后点击查看天气观测和预报。

如需切换地图:点击带黑十字的绿色按钮放大地图;点击带横线的绿色按钮缩小地图;或者点击绿色箭头查看邻近地区的地图。


METAR-TAF: